Time;durP1;ratioP1;P1;durP2;ratioP2;P2;SDS_P1;SDS_P2;PMS_P1;PMS_P2;Temp;Humidity;BMP_temperature;BMP_pressure;BME280_temperature;BME280_humidity;BME280_pressure;Samples;Min_cycle;Max_cycle;Signal;HPM_P1;HPM_P2
2021/03/17 00:00:29;;;;;;;4.18;2.63;;;;;;;-145.50;100.00;65435.88;4963809;28;20145;-72
2021/03/17 00:02:56;;;;;;;4.18;2.88;;;;;;;-145.50;100.00;65435.88;4965967;28;20191;-72
2021/03/17 00:05:29;;;;;;;4.95;2.92;;;;;;;-145.50;100.00;65435.88;4957175;28;20090;-72
2021/03/17 00:07:56;;;;;;;5.57;3.40;;;;;;;-145.50;100.00;65435.88;4958772;28;20533;-73
2021/03/17 00:10:23;;;;;;;4.25;2.83;;;;;;;-145.50;100.00;65435.88;4959922;28;20090;-72
2021/03/17 00:12:52;;;;;;;5.30;3.15;;;;;;;-145.50;100.00;65435.88;4947687;28;20129;-73
2021/03/17 00:15:20;;;;;;;4.35;2.67;;;;;;;-145.50;100.00;65435.88;4969297;28;20090;-73
2021/03/17 00:17:46;;;;;;;4.45;3.05;;;;;;;-145.50;100.00;65435.88;4942623;28;20051;-73
2021/03/17 00:20:14;;;;;;;4.32;3.00;;;;;;;-145.50;100.00;65435.88;4941060;28;20142;-73
2021/03/17 00:22:41;;;;;;;4.32;2.67;;;;;;;-145.50;100.00;65435.88;4954230;28;20186;-73
2021/03/17 00:25:08;;;;;;;4.93;3.22;;;;;;;-145.50;100.00;65435.88;4966575;28;20066;-72
2021/03/17 00:27:34;;;;;;;6.50;3.50;;;;;;;-145.50;100.00;65435.88;4959967;28;20058;-73
2021/03/17 00:30:00;;;;;;;3.50;2.60;;;;;;;-145.50;100.00;65435.88;4954760;28;20086;-73
2021/03/17 00:32:27;;;;;;;4.85;2.63;;;;;;;-145.50;100.00;65435.88;4945912;28;20080;-73
2021/03/17 00:34:53;;;;;;;4.70;2.80;;;;;;;-145.50;100.00;65435.88;4961854;28;20505;-73
2021/03/17 00:37:19;;;;;;;4.85;2.65;;;;;;;-145.50;100.00;65435.88;4960245;28;20836;-73
2021/03/17 00:39:45;;;;;;;4.72;2.92;;;;;;;-145.50;100.00;65435.88;4965479;28;20763;-72
2021/03/17 00:42:12;;;;;;;5.47;2.38;;;;;;;-145.50;100.00;65435.88;4962643;28;20672;-73
2021/03/17 00:44:38;;;;;;;4.47;2.85;;;;;;;-145.50;100.00;65435.88;4932165;28;20091;-73
2021/03/17 00:47:04;;;;;;;4.28;2.67;;;;;;;-145.50;100.00;65435.88;4965621;28;20138;-73
2021/03/17 00:49:30;;;;;;;4.40;2.75;;;;;;;-145.50;100.00;65435.88;4960282;28;20063;-72
2021/03/17 00:51:56;;;;;;;3.92;2.33;;;;;;;-145.50;100.00;65435.88;4951448;28;20602;-73
2021/03/17 00:54:22;;;;;;;3.63;2.50;;;;;;;-145.50;100.00;65435.88;4958666;28;20779;-73
2021/03/17 00:56:48;;;;;;;5.22;2.70;;;;;;;-145.50;100.00;65435.88;4963748;28;20077;-73
2021/03/17 00:59:14;;;;;;;4.97;2.92;;;;;;;-145.50;100.00;65435.88;4956823;28;20589;-73
2021/03/17 01:01:40;;;;;;;3.25;2.42;;;;;;;-145.50;100.00;65435.88;4965098;28;20133;-73
2021/03/17 01:04:08;;;;;;;3.50;2.42;;;;;;;-145.50;100.00;65435.88;4966067;28;20423;-73
2021/03/17 01:06:34;;;;;;;4.03;3.00;;;;;;;-145.50;100.00;65435.88;4959552;28;20172;-73
2021/03/17 01:09:00;;;;;;;3.95;2.70;;;;;;;-145.50;100.00;65435.88;4945526;28;20051;-73
2021/03/17 01:11:26;;;;;;;3.90;3.00;;;;;;;-145.50;100.00;65435.88;4934251;28;20055;-73
2021/03/17 01:13:52;;;;;;;4.78;2.97;;;;;;;-145.50;100.00;65435.88;4966064;28;20136;-73
2021/03/17 01:16:18;;;;;;;3.95;3.00;;;;;;;-145.50;100.00;65435.88;4960195;28;20055;-73
2021/03/17 01:18:44;;;;;;;3.92;2.83;;;;;;;-145.50;100.00;65435.88;4965658;28;20054;-73
2021/03/17 01:21:10;;;;;;;5.50;3.97;;;;;;;-145.50;100.00;65435.88;4953790;28;20082;-73
2021/03/17 01:23:36;;;;;;;6.32;4.00;;;;;;;-145.50;100.00;65435.88;4954858;28;20086;-73
2021/03/17 01:26:03;;;;;;;5.30;3.13;;;;;;;-145.50;100.00;65435.88;4957699;28;20059;-73
2021/03/17 01:28:29;;;;;;;3.50;2.78;;;;;;;-145.50;100.00;65435.88;4955724;28;20058;-73
2021/03/17 01:30:58;;;;;;;4.68;2.65;;;;;;;-145.50;100.00;65435.88;4965752;28;20149;-72
2021/03/17 01:33:27;;;;;;;4.13;3.45;;;;;;;-145.50;100.00;65435.88;4946688;28;20066;-72
2021/03/17 01:35:54;;;;;;;3.70;2.70;;;;;;;-145.50;100.00;65435.88;4943054;28;20467;-72
2021/03/17 01:38:21;;;;;;;4.65;3.20;;;;;;;-145.50;100.00;65435.88;4952219;28;20054;-72
2021/03/17 01:40:48;;;;;;;4.57;3.05;;;;;;;-145.50;100.00;65435.88;4942783;28;20063;-72
2021/03/17 01:43:15;;;;;;;4.68;2.90;;;;;;;-145.50;100.00;65435.88;4945303;28;20098;-72
2021/03/17 01:45:42;;;;;;;3.75;2.83;;;;;;;-145.50;100.00;65435.88;4951996;28;20063;-73
2021/03/17 01:48:09;;;;;;;4.20;3.03;;;;;;;-145.50;100.00;65435.88;4953411;28;20066;-72
2021/03/17 01:50:40;;;;;;;7.32;3.45;;;;;;;-145.50;100.00;65435.88;4952833;28;20356;-72
2021/03/17 01:53:12;;;;;;;4.43;2.90;;;;;;;-145.50;100.00;65435.88;4952368;28;20748;-72
2021/03/17 01:55:39;;;;;;;3.50;2.47;;;;;;;-145.50;100.00;65435.88;4955994;28;20090;-73
2021/03/17 01:58:05;;;;;;;4.07;2.80;;;;;;;-145.50;100.00;65435.88;4955645;28;20055;-73
2021/03/17 02:00:32;;;;;;;4.90;3.13;;;;;;;-145.50;100.00;65435.88;4943379;28;20468;-73
2021/03/17 02:02:58;;;;;;;4.13;2.90;;;;;;;-145.50;100.00;65435.88;4964777;28;20479;-73
2021/03/17 02:05:40;;;;;;;4.15;2.95;;;;;;;-145.50;100.00;65435.88;4944197;28;20467;-73
2021/03/17 02:08:09;;;;;;;6.38;4.22;;;;;;;-145.50;100.00;65435.88;4955322;28;20113;-73
2021/03/17 02:10:36;;;;;;;3.83;2.92;;;;;;;-145.50;100.00;65435.88;4963309;28;20050;-73
2021/03/17 02:13:39;;;;;;;4.03;2.95;;;;;;;-145.50;100.00;65435.88;4955193;28;20170;-73
2021/03/17 02:16:33;;;;;;;4.30;2.80;;;;;;;-145.50;100.00;65435.88;4961458;28;20071;-73
2021/03/17 02:19:28;;;;;;;4.07;2.88;;;;;;;-145.50;100.00;65435.88;4950498;28;20214;-73
2021/03/17 02:22:48;;;;;;;3.63;2.85;;;;;;;-145.50;100.00;65435.88;4952504;28;20117;-73
2021/03/17 02:25:14;;;;;;;3.97;3.00;;;;;;;-145.50;100.00;65435.88;4914579;29;20119;-73
2021/03/17 02:28:10;;;;;;;5.38;3.05;;;;;;;-145.50;100.00;65435.88;4958777;28;20058;-72
2021/03/17 02:31:06;;;;;;;5.15;3.30;;;;;;;-145.50;100.00;65435.88;4964706;28;20055;-73
2021/03/17 02:33:39;;;;;;;3.90;3.00;;;;;;;-145.50;100.00;65435.88;4941371;28;20055;-73
2021/03/17 02:36:36;;;;;;;5.07;3.38;;;;;;;-145.50;100.00;65435.88;4956762;28;20150;-73
2021/03/17 02:39:10;;;;;;;4.82;3.65;;;;;;;-145.50;100.00;65435.88;4957046;28;20109;-73
2021/03/17 02:41:43;;;;;;;4.32;3.47;;;;;;;-145.50;100.00;65435.88;4949454;28;20086;-73
2021/03/17 02:44:15;;;;;;;5.22;3.40;;;;;;;-145.50;100.00;65435.88;4947465;29;20091;-73
2021/03/17 02:46:42;;;;;;;5.95;3.58;;;;;;;-145.50;100.00;65435.88;4959747;28;20145;-73
2021/03/17 02:49:17;;;;;;;5.40;3.90;;;;;;;-145.50;100.00;65435.88;4963056;28;20086;-73
2021/03/17 02:51:54;;;;;;;6.28;4.70;;;;;;;-145.50;100.00;65435.88;4963529;28;20061;-73
2021/03/17 02:54:23;;;;;;;6.82;4.80;;;;;;;-145.50;100.00;65435.88;4968533;28;20114;-73
2021/03/17 02:56:56;;;;;;;5.47;4.10;;;;;;;-145.50;100.00;65435.88;4960574;28;20062;-73
2021/03/17 02:59:24;;;;;;;7.78;4.60;;;;;;;-145.50;100.00;65435.88;4968647;28;20065;-73
2021/03/17 03:01:53;;;;;;;6.15;4.57;;;;;;;-145.50;100.00;65435.88;4939604;28;20141;-73
2021/03/17 03:04:22;;;;;;;6.45;5.10;;;;;;;-145.50;100.00;65435.88;4943703;28;20158;-73
2021/03/17 03:06:49;;;;;;;6.88;5.03;;;;;;;-145.50;100.00;65435.88;4961694;28;20070;-73
2021/03/17 03:09:18;;;;;;;6.80;5.40;;;;;;;-145.50;100.00;65435.88;4966352;28;20054;-73
2021/03/17 03:11:44;;;;;;;;;;;;;;;-145.50;100.00;65435.88;4950306;28;20776;-73
2021/03/17 03:14:12;;;;;;;6.43;4.30;;;;;;;-145.50;100.00;65435.88;4963637;28;19926;-73
2021/03/17 03:16:40;;;;;;;5.00;3.90;;;;;;;-145.50;100.00;65435.88;4963055;28;20090;-73
2021/03/17 03:19:08;;;;;;;6.20;4.40;;;;;;;-145.50;100.00;65435.88;4958570;28;20574;-73
2021/03/17 03:21:36;;;;;;;4.80;3.80;;;;;;;-145.50;100.00;65435.88;4965790;28;20062;-73
2021/03/17 03:24:03;;;;;;;6.28;4.28;;;;;;;-145.50;100.00;65435.88;4957408;28;20169;-73
2021/03/17 03:26:32;;;;;;;7.93;4.43;;;;;;;-145.50;100.00;65435.88;4947441;28;20615;-73
2021/03/17 03:28:59;;;;;;;6.43;4.35;;;;;;;-145.50;100.00;65435.88;4958015;28;20082;-73
2021/03/17 03:31:25;;;;;;;5.10;3.90;;;;;;;-145.50;100.00;65435.88;4955934;28;20495;-73
2021/03/17 03:33:51;;;;;;;4.80;3.85;;;;;;;-145.50;100.00;65435.88;4966645;28;20059;-73
2021/03/17 03:36:17;;;;;;;7.57;4.40;;;;;;;-145.50;100.00;65435.88;4957044;28;20117;-73
2021/03/17 03:38:43;;;;;;;5.32;4.00;;;;;;;-145.50;100.00;65435.88;4949844;28;20174;-73
2021/03/17 03:41:10;;;;;;;5.65;4.25;;;;;;;-145.50;100.00;65435.88;4950083;28;20055;-73
2021/03/17 03:43:36;;;;;;;5.13;3.70;;;;;;;-145.50;100.00;65435.88;4962428;28;20142;-73
2021/03/17 03:46:02;;;;;;;4.70;3.53;;;;;;;-145.50;100.00;65435.88;4957350;28;20141;-73
2021/03/17 03:48:30;;;;;;;7.87;3.73;;;;;;;-145.50;100.00;65435.88;4948967;28;20059;-73
2021/03/17 03:50:57;;;;;;;4.18;3.28;;;;;;;-145.50;100.00;65435.88;4950061;28;20125;-73
2021/03/17 03:53:29;;;;;;;6.10;4.03;;;;;;;-145.50;100.00;65435.88;4951606;28;20553;-74
2021/03/17 03:56:12;;;;;;;5.18;3.95;;;;;;;-145.50;100.00;65435.88;4950036;28;20550;-73
2021/03/17 03:58:45;;;;;;;4.88;3.60;;;;;;;-145.50;100.00;65435.88;4951670;28;20109;-73
2021/03/17 04:01:16;;;;;;;4.82;3.35;;;;;;;-145.50;100.00;65435.88;4940415;29;20063;-73
2021/03/17 04:03:51;;;;;;;3.78;3.25;;;;;;;-145.50;100.00;65435.88;4937944;28;20150;-73
2021/03/17 04:06:17;;;;;;;3.72;3.03;;;;;;;-145.50;100.00;65435.88;4962536;28;20062;-73
2021/03/17 04:08:48;;;;;;;4.07;3.15;;;;;;;-145.50;100.00;65435.88;4960304;28;20077;-73
2021/03/17 04:11:16;;;;;;;4.80;3.22;;;;;;;-145.50;100.00;65435.88;4963309;28;20063;-74
2021/03/17 04:13:45;;;;;;;3.97;3.10;;;;;;;-145.50;100.00;65435.88;4966977;28;20104;-73
2021/03/17 04:16:13;;;;;;;4.35;2.83;;;;;;;-145.50;100.00;65435.88;4939923;28;20070;-73
2021/03/17 04:18:43;;;;;;;5.00;3.03;;;;;;;-145.50;100.00;65435.88;4963346;28;20455;-73
2021/03/17 04:21:16;;;;;;;3.83;2.97;;;;;;;-145.50;100.00;65435.88;4961462;28;20481;-73
2021/03/17 04:23:46;;;;;;;4.78;3.00;;;;;;;-145.50;100.00;65435.88;4961964;28;20498;-74
2021/03/17 04:26:13;;;;;;;3.28;2.75;;;;;;;-145.50;100.00;65435.88;4954911;28;20059;-73
2021/03/17 04:28:42;;;;;;;5.20;3.03;;;;;;;-145.50;100.00;65435.88;4957196;28;20140;-72
2021/03/17 04:31:10;;;;;;;3.88;2.85;;;;;;;-145.50;100.00;65435.88;4960606;28;20093;-73
2021/03/17 04:33:37;;;;;;;3.97;3.33;;;;;;;-145.50;100.00;65435.88;4965195;28;20083;-73
2021/03/17 04:36:05;;;;;;;4.57;3.22;;;;;;;-145.50;100.00;65435.88;4964603;28;20093;-73
2021/03/17 04:38:33;;;;;;;5.32;3.08;;;;;;;-145.50;100.00;65435.88;4955070;28;20396;-73
2021/03/17 04:41:00;;;;;;;3.30;2.67;;;;;;;-145.50;100.00;65435.88;4962195;28;20061;-72
2021/03/17 04:43:27;;;;;;;5.13;3.40;;;;;;;-145.50;100.00;65435.88;4938989;28;20348;-73
2021/03/17 04:45:54;;;;;;;4.07;3.00;;;;;;;-145.50;100.00;65435.88;4943381;28;20454;-73
2021/03/17 04:48:21;;;;;;;4.85;3.13;;;;;;;-145.50;100.00;65435.88;4955178;28;20063;-73
2021/03/17 04:50:51;;;;;;;6.15;3.70;;;;;;;-145.50;100.00;65435.88;4949892;28;20059;-73
2021/03/17 04:53:17;;;;;;;4.18;3.50;;;;;;;-145.50;100.00;65435.88;4955503;28;20915;-72
2021/03/17 04:55:43;;;;;;;6.20;3.47;;;;;;;-145.50;100.00;65435.88;4961035;28;20136;-73
2021/03/17 04:58:14;;;;;;;6.10;3.60;;;;;;;-145.50;100.00;65435.88;4948704;28;20070;-73
2021/03/17 05:00:44;;;;;;;5.68;3.03;;;;;;;-145.50;100.00;65435.88;4927244;28;20082;-73
2021/03/17 05:03:13;;;;;;;4.57;3.08;;;;;;;-145.50;100.00;65435.88;4965357;28;20059;-73
2021/03/17 05:05:40;;;;;;;;;;;;;;;-145.50;100.00;65435.88;4959298;28;20093;-74
2021/03/17 05:08:08;;;;;;;6.05;3.05;;;;;;;-145.50;100.00;65435.88;4958560;28;19973;-74
2021/03/17 05:10:37;;;;;;;4.85;3.25;;;;;;;-145.50;100.00;65435.88;4954542;28;20637;-74
2021/03/17 05:13:08;;;;;;;3.50;3.10;;;;;;;-145.50;100.00;65435.88;4963941;28;20066;-73
2021/03/17 05:15:35;;;;;;;3.92;2.90;;;;;;;-145.50;100.00;65435.88;4960382;28;20059;-73
2021/03/17 05:18:02;;;;;;;6.13;3.10;;;;;;;-145.50;100.00;65435.88;4940926;28;20154;-72
2021/03/17 05:20:29;;;;;;;6.07;2.90;;;;;;;-145.50;100.00;65435.88;4962537;28;20597;-72
2021/03/17 05:22:57;;;;;;;4.45;3.08;;;;;;;-145.50;100.00;65435.88;4954706;28;20762;-72
2021/03/17 05:25:24;;;;;;;4.20;2.80;;;;;;;-145.50;100.00;65435.88;4965270;28;20137;-72
2021/03/17 05:27:54;;;;;;;3.28;2.55;;;;;;;-145.50;100.00;65435.88;4959194;28;20901;-72
2021/03/17 05:30:24;;;;;;;3.10;2.67;;;;;;;-145.50;100.00;65435.88;4944465;29;20138;-72
2021/03/17 05:32:52;;;;;;;4.82;2.83;;;;;;;-145.50;100.00;65435.88;4957205;28;20109;-73
2021/03/17 05:35:18;;;;;;;3.72;2.95;;;;;;;-145.50;100.00;65435.88;4961143;28;20574;-73
2021/03/17 05:37:46;;;;;;;4.57;2.85;;;;;;;-145.50;100.00;65435.88;4954265;28;20161;-73
2021/03/17 05:40:14;;;;;;;2.78;2.20;;;;;;;-145.50;100.00;65435.88;4963195;28;20579;-73
2021/03/17 05:42:41;;;;;;;;;;;;;;;-145.50;100.00;65435.88;4964269;28;20141;-73
2021/03/17 05:45:13;;;;;;;3.47;1.80;;;;;;;-145.50;100.00;65435.88;4941666;28;20165;-73
2021/03/17 05:47:45;;;;;;;2.63;1.80;;;;;;;-145.50;100.00;65435.88;4959261;28;20061;-73
2021/03/17 05:50:15;;;;;;;3.72;1.90;;;;;;;-145.50;100.00;65435.88;4950841;28;20054;-73
2021/03/17 05:52:43;;;;;;;2.65;1.98;;;;;;;-145.50;100.00;65435.88;4955274;28;20131;-73
2021/03/17 05:55:11;;;;;;;3.50;2.20;;;;;;;-145.50;100.00;65435.88;4947984;28;20133;-73
2021/03/17 05:57:38;;;;;;;2.95;2.00;;;;;;;-145.50;100.00;65435.88;4965256;28;20066;-73
2021/03/17 06:00:07;;;;;;;2.67;2.03;;;;;;;-145.50;100.00;65435.88;4955799;28;20161;-73
2021/03/17 06:02:35;;;;;;;3.65;1.80;;;;;;;-145.50;100.00;65435.88;4937983;28;20492;-73
2021/03/17 06:05:03;;;;;;;5.85;2.28;;;;;;;-145.50;100.00;65435.88;4961141;28;20764;-73
2021/03/17 06:07:38;;;;;;;2.72;1.92;;;;;;;-145.50;100.00;65435.88;4947078;28;20117;-73
2021/03/17 06:10:05;;;;;;;3.42;2.00;;;;;;;-145.50;100.00;65435.88;4964774;28;20105;-73
2021/03/17 06:12:35;;;;;;;2.95;2.13;;;;;;;-145.50;100.00;65435.88;4956593;28;20491;-73
2021/03/17 06:15:03;;;;;;;2.83;1.90;;;;;;;-145.50;100.00;65435.88;4970198;28;20862;-73
2021/03/17 06:17:33;;;;;;;4.40;2.35;;;;;;;-145.50;100.00;65435.88;4954964;28;20094;-73
2021/03/17 06:20:03;;;;;;;3.35;2.35;;;;;;;-145.50;100.00;65435.88;4960792;28;20101;-73
2021/03/17 06:22:30;;;;;;;5.05;2.45;;;;;;;-145.50;100.00;65435.88;4957207;28;20101;-73
2021/03/17 06:24:57;;;;;;;4.57;2.47;;;;;;;-145.50;100.00;65435.88;4964866;28;20062;-73
2021/03/17 06:27:24;;;;;;;3.40;2.33;;;;;;;-145.50;100.00;65435.88;4947039;28;20114;-73
2021/03/17 06:29:50;;;;;;;4.88;1.92;;;;;;;-145.50;100.00;65435.88;4957717;28;20122;-73
2021/03/17 06:32:16;;;;;;;3.88;2.33;;;;;;;-145.50;100.00;65435.88;4958033;28;20058;-73
2021/03/17 06:34:50;;;;;;;2.72;2.20;;;;;;;-145.50;100.00;65435.88;4953749;28;20055;-73
2021/03/17 06:37:16;;;;;;;3.75;2.45;;;;;;;-145.50;100.00;65435.88;4964540;28;20059;-73
2021/03/17 06:39:42;;;;;;;4.95;2.47;;;;;;;-145.50;100.00;65435.88;4958391;28;20065;-74
2021/03/17 06:42:10;;;;;;;4.15;2.08;;;;;;;-145.50;100.00;65435.88;4963322;28;20063;-74
2021/03/17 06:44:37;;;;;;;5.85;3.08;;;;;;;-145.50;100.00;65435.88;4954820;28;20436;-73
2021/03/17 06:47:19;;;;;;;6.80;3.22;;;;;;;-145.50;100.00;65435.88;4959979;28;20495;-72
2021/03/17 06:49:53;;;;;;;3.22;2.20;;;;;;;-145.50;100.00;65435.88;4962617;28;20054;-73
2021/03/17 06:52:32;;;;;;;5.25;2.55;;;;;;;-145.50;100.00;65435.88;4946701;28;20828;-73
2021/03/17 06:55:14;;;;;;;3.30;2.35;;;;;;;-145.50;100.00;65435.88;4947712;28;20121;-73
2021/03/17 06:57:52;;;;;;;6.40;2.10;;;;;;;-145.50;100.00;65435.88;4948117;28;20137;-74
2021/03/17 07:00:31;;;;;;;2.63;1.50;;;;;;;-145.50;100.00;65435.88;4955415;28;20095;-73
2021/03/17 07:03:02;;;;;;;2.38;1.45;;;;;;;-145.50;100.00;65435.88;4948657;28;20241;-73
2021/03/17 07:05:41;;;;;;;2.17;1.63;;;;;;;-145.50;100.00;65435.88;4955328;28;20059;-73
2021/03/17 07:08:10;;;;;;;2.50;1.50;;;;;;;-145.50;100.00;65435.88;4957702;28;20082;-73
2021/03/17 07:11:05;;;;;;;3.40;1.42;;;;;;;-145.50;100.00;65435.88;4946848;28;20057;-73
2021/03/17 07:13:31;;;;;;;3.78;1.30;;;;;;;-145.50;100.00;65435.88;4957804;28;20054;-73
2021/03/17 07:15:58;;;;;;;2.55;1.17;;;;;;;-145.50;100.00;65435.88;4956833;28;20065;-73
2021/03/17 07:18:28;;;;;;;3.47;1.25;;;;;;;-145.50;100.00;65435.88;4959528;28;20083;-73
2021/03/17 07:20:57;;;;;;;3.40;1.38;;;;;;;-145.50;100.00;65435.88;4965730;28;21034;-73
2021/03/17 07:23:34;;;;;;;2.90;1.17;;;;;;;-145.50;100.00;65435.88;4966830;28;20058;-73
2021/03/17 07:26:29;;;;;;;2.15;1.23;;;;;;;-145.50;100.00;65435.88;4940601;28;20154;-73
2021/03/17 07:29:16;;;;;;;2.25;1.27;;;;;;;-145.50;100.00;65435.88;4944136;28;20594;-73
2021/03/17 07:31:43;;;;;;;3.38;1.50;;;;;;;-145.50;100.00;65435.88;4966250;28;20066;-73
2021/03/17 07:34:16;;;;;;;3.55;1.17;;;;;;;-145.50;100.00;65435.88;4948962;28;20058;-73
2021/03/17 07:36:46;;;;;;;3.20;1.27;;;;;;;-145.50;100.00;65435.88;4961537;28;20145;-73
2021/03/17 07:39:19;;;;;;;2.38;1.20;;;;;;;-145.50;100.00;65435.88;4963060;28;20059;-73
2021/03/17 07:41:47;;;;;;;4.35;1.73;;;;;;;-145.50;100.00;65435.88;4956171;28;20137;-73
2021/03/17 07:44:15;;;;;;;4.13;1.58;;;;;;;-145.50;100.00;65435.88;4966869;28;20104;-73
2021/03/17 07:46:43;;;;;;;2.97;1.58;;;;;;;-145.50;100.00;65435.88;4961588;28;20094;-74
2021/03/17 07:49:11;;;;;;;3.95;1.30;;;;;;;-145.50;100.00;65435.88;4950967;28;20438;-73
2021/03/17 07:51:52;;;;;;;2.45;1.20;;;;;;;-145.50;100.00;65435.88;4939907;28;20070;-73
2021/03/17 07:54:40;;;;;;;3.22;1.02;;;;;;;-145.50;100.00;65435.88;4940320;28;20400;-73
2021/03/17 07:57:07;;;;;;;3.35;0.77;;;;;;;-145.50;100.00;65435.88;4960145;28;20568;-74
2021/03/17 07:59:34;;;;;;;3.47;1.00;;;;;;;-145.50;100.00;65435.88;4966815;28;20062;-73
2021/03/17 08:02:00;;;;;;;1.73;0.77;;;;;;;-145.50;100.00;65435.88;4966999;28;20077;-74
2021/03/17 08:04:31;;;;;;;3.22;0.93;;;;;;;-145.50;100.00;65435.88;4962042;28;20082;-74
2021/03/17 08:07:03;;;;;;;3.05;1.00;;;;;;;-145.50;100.00;65435.88;4964217;28;20126;-74
2021/03/17 08:09:30;;;;;;;3.17;0.95;;;;;;;-145.50;100.00;65435.88;4957825;28;20616;-74
2021/03/17 08:12:01;;;;;;;3.80;1.13;;;;;;;-145.50;100.00;65435.88;4948710;28;20066;-73
2021/03/17 08:14:28;;;;;;;5.13;1.70;;;;;;;-145.50;100.00;65435.88;4950170;28;20066;-74
2021/03/17 08:16:55;;;;;;;4.90;1.25;;;;;;;-145.50;100.00;65435.88;4950596;28;20063;-75
2021/03/17 08:19:23;;;;;;;8.13;1.20;;;;;;;-145.50;100.00;65435.88;4954941;28;20180;-74
2021/03/17 08:21:57;;;;;;;4.47;0.98;;;;;;;-145.50;100.00;65435.88;4956948;28;20125;-75
2021/03/17 08:24:33;;;;;;;6.13;1.00;;;;;;;-145.50;100.00;65435.88;4949928;28;20531;-74
2021/03/17 08:27:21;;;;;;;2.70;0.90;;;;;;;-145.50;100.00;65435.88;4955616;28;20553;-75
2021/03/17 08:30:13;;;;;;;2.67;0.77;;;;;;;-145.50;100.00;65435.88;4961019;28;20491;-75
2021/03/17 08:32:53;;;;;;;5.30;0.90;;;;;;;-145.50;100.00;65435.88;4960746;28;20062;-76
2021/03/17 08:35:19;;;;;;;3.65;0.70;;;;;;;-145.50;100.00;65435.88;4944632;28;20069;-75
2021/03/17 08:37:51;;;;;;;2.63;1.08;;;;;;;-145.50;100.00;65435.88;4957574;28;20058;-76
2021/03/17 08:40:26;;;;;;;8.30;1.30;;;;;;;-145.50;100.00;65435.88;4966466;28;20074;-75
2021/03/17 08:43:27;;;;;;;5.57;0.82;;;;;;;-145.50;100.00;65435.88;4944418;28;20258;-75
2021/03/17 08:46:14;;;;;;;1.67;0.82;;;;;;;-145.50;100.00;65435.88;4966528;28;20077;-75
2021/03/17 08:49:02;;;;;;;8.10;1.40;;;;;;;-145.50;100.00;65435.88;4957369;28;20055;-75
2021/03/17 08:51:47;;;;;;;5.38;0.95;;;;;;;-145.50;100.00;65435.88;4967389;28;20054;-75
2021/03/17 08:54:34;;;;;;;6.68;1.13;;;;;;;-145.50;100.00;65435.88;4961233;28;20062;-74
2021/03/17 08:57:00;;;;;;;4.43;0.77;;;;;;;-145.50;100.00;65435.88;4965307;28;20109;-75
2021/03/17 08:59:54;;;;;;;4.93;0.95;;;;;;;-145.50;100.00;65435.88;4961573;28;20177;-75
2021/03/17 09:02:40;;;;;;;7.57;1.20;;;;;;;-145.50;100.00;65435.88;4959359;28;20486;-75
2021/03/17 09:05:21;;;;;;;4.28;0.90;;;;;;;-145.50;100.00;65435.88;4948413;28;20153;-74
2021/03/17 09:08:08;;;;;;;9.63;1.17;;;;;;;-145.50;100.00;65435.88;4949017;28;20066;-74
2021/03/17 09:10:46;;;;;;;3.85;1.00;;;;;;;-145.50;100.00;65435.88;4960279;28;20503;-73
2021/03/17 09:13:15;;;;;;;8.38;2.15;;;;;;;-145.50;100.00;65435.88;4967336;28;20055;-75
2021/03/17 09:15:46;;;;;;;3.13;1.20;;;;;;;-145.50;100.00;65435.88;4956525;28;20050;-75
2021/03/17 09:18:15;;;;;;;2.63;0.80;;;;;;;-145.50;100.00;65435.88;4945374;28;20894;-75
2021/03/17 09:20:52;;;;;;;4.25;1.15;;;;;;;-145.50;100.00;65435.88;4958604;28;20141;-75
2021/03/17 09:23:20;;;;;;;3.33;1.27;;;;;;;-145.50;100.00;65435.88;4945138;28;20070;-73
2021/03/17 09:25:57;;;;;;;3.05;0.90;;;;;;;-145.50;100.00;65435.88;4957322;28;20116;-74
2021/03/17 09:28:27;;;;;;;2.25;1.00;;;;;;;-145.50;100.00;65435.88;4956741;28;20055;-74
2021/03/17 09:30:59;;;;;;;1.98;0.95;;;;;;;-145.50;100.00;65435.88;4944691;28;20090;-74
2021/03/17 09:33:30;;;;;;;2.20;0.90;;;;;;;-145.50;100.00;65435.88;4956221;28;20093;-75
2021/03/17 09:36:04;;;;;;;2.60;0.80;;;;;;;-145.50;100.00;65435.88;4947298;28;20487;-74
2021/03/17 09:38:33;;;;;;;4.75;0.90;;;;;;;-145.50;100.00;65435.88;4943175;28;20050;-75
2021/03/17 09:41:10;;;;;;;7.07;1.30;;;;;;;-145.50;100.00;65435.88;4965618;28;20057;-74
2021/03/17 09:43:56;;;;;;;2.90;1.27;;;;;;;-145.50;100.00;65435.88;4940638;28;20070;-74
2021/03/17 09:46:36;;;;;;;7.85;1.10;;;;;;;-145.50;100.00;65435.88;4961185;28;20055;-75
2021/03/17 09:49:08;;;;;;;1.65;0.85;;;;;;;-145.50;100.00;65435.88;4957570;28;20059;-74
2021/03/17 09:51:40;;;;;;;1.75;0.80;;;;;;;-145.50;100.00;65435.88;4967693;28;20223;-73
2021/03/17 09:54:10;;;;;;;2.60;0.88;;;;;;;-145.50;100.00;65435.88;4959044;28;20058;-73
2021/03/17 09:56:45;;;;;;;4.93;1.40;;;;;;;-145.50;100.00;65435.88;4965284;28;20063;-74
2021/03/17 09:59:30;;;;;;;4.15;0.90;;;;;;;-145.50;100.00;65435.88;4931996;28;20488;-73
2021/03/17 10:02:04;;;;;;;3.50;0.90;;;;;;;-145.50;100.00;65435.88;4946911;28;20117;-74
2021/03/17 10:04:45;;;;;;;5.20;1.00;;;;;;;-145.50;100.00;65435.88;4960299;28;20055;-74
2021/03/17 10:07:34;;;;;;;5.93;1.45;;;;;;;-145.50;100.00;65435.88;4964701;28;20061;-73
2021/03/17 10:10:03;;;;;;;3.20;0.82;;;;;;;-145.50;100.00;65435.88;4965537;28;20061;-73
2021/03/17 10:12:31;;;;;;;2.83;0.90;;;;;;;-145.50;100.00;65435.88;4931826;28;20062;-74
2021/03/17 10:15:21;;;;;;;4.70;1.00;;;;;;;-145.50;100.00;65435.88;4971412;28;20138;-74
2021/03/17 10:17:48;;;;;;;7.00;1.20;;;;;;;-145.50;100.00;65435.88;4950204;28;20137;-77
2021/03/17 10:20:21;;;;;;;6.47;1.10;;;;;;;-145.50;100.00;65435.88;4965744;28;20154;-75
2021/03/17 10:22:50;;;;;;;4.38;1.00;;;;;;;-145.50;100.00;65435.88;4938265;28;20058;-74
2021/03/17 10:25:19;;;;;;;7.22;1.92;;;;;;;-145.50;100.00;65435.88;4960522;28;20094;-73
2021/03/17 10:27:48;;;;;;;6.30;2.47;;;;;;;-145.50;100.00;65435.88;4956065;28;20063;-73
2021/03/17 10:30:30;;;;;;;3.13;0.80;;;;;;;-145.50;100.00;65435.88;4950440;28;20585;-75
2021/03/17 10:33:01;;;;;;;5.78;1.13;;;;;;;-145.50;100.00;65435.88;4957654;28;20051;-74
2021/03/17 10:35:32;;;;;;;7.05;1.33;;;;;;;-145.50;100.00;65435.88;4964460;28;20121;-74
2021/03/17 10:38:00;;;;;;;3.95;1.02;;;;;;;-145.50;100.00;65435.88;4954742;28;20062;-75
2021/03/17 10:40:28;;;;;;;5.28;0.90;;;;;;;-145.50;100.00;65435.88;4945046;28;20070;-73
2021/03/17 10:43:05;;;;;;;6.30;0.93;;;;;;;-145.50;100.00;65435.88;4952404;28;20153;-73
2021/03/17 10:45:43;;;;;;;3.88;0.80;;;;;;;-145.50;100.00;65435.88;4958903;28;20058;-74
2021/03/17 10:48:16;;;;;;;4.70;0.95;;;;;;;-145.50;100.00;65435.88;4964181;28;20743;-73
2021/03/17 10:50:44;;;;;;;4.45;0.90;;;;;;;-145.50;100.00;65435.88;4961796;28;20066;-74
2021/03/17 10:53:21;;;;;;;6.82;1.17;;;;;;;-145.50;100.00;65435.88;4959543;28;20067;-74
2021/03/17 10:55:50;;;;;;;4.78;0.93;;;;;;;-145.50;100.00;65435.88;4961846;28;20058;-73
2021/03/17 10:58:20;;;;;;;4.28;0.85;;;;;;;-145.50;100.00;65435.88;4967576;28;20581;-73
2021/03/17 11:00:52;;;;;;;6.18;1.40;;;;;;;-145.50;100.00;65435.88;4943934;28;20585;-74
2021/03/17 11:03:28;;;;;;;5.07;1.00;;;;;;;-145.50;100.00;65435.88;4947209;28;20687;-74
2021/03/17 11:06:10;;;;;;;3.95;1.33;;;;;;;-145.50;100.00;65435.88;4956862;28;20139;-73
2021/03/17 11:08:36;;;;;;;2.15;0.70;;;;;;;-145.50;100.00;65435.88;4964566;28;20070;-73
2021/03/17 11:11:06;;;;;;;6.50;1.23;;;;;;;-145.50;100.00;65435.88;4948328;28;20138;-73
2021/03/17 11:13:35;;;;;;;4.03;0.93;;;;;;;-145.50;100.00;65435.88;4949392;28;20061;-75
2021/03/17 11:16:06;;;;;;;6.50;1.02;;;;;;;-145.50;100.00;65435.88;4961540;28;20082;-74
2021/03/17 11:18:34;;;;;;;10.52;1.40;;;;;;;-145.50;100.00;65435.88;4962297;28;20059;-73
2021/03/17 11:21:09;;;;;;;4.80;0.98;;;;;;;-145.50;100.00;65435.88;4965114;28;20157;-74
2021/03/17 11:23:40;;;;;;;9.30;1.58;;;;;;;-145.50;100.00;65435.88;4941471;28;20149;-75
2021/03/17 11:26:17;;;;;;;6.38;1.40;;;;;;;-145.50;100.00;65435.88;4968692;28;20463;-74
2021/03/17 11:28:43;;;;;;;6.35;1.05;;;;;;;-145.50;100.00;65435.88;4962461;28;20598;-73